Time;durP1;ratioP1;P1;durP2;ratioP2;P2;SDS_P1;SDS_P2;PMS_P1;PMS_P2;Temp;Humidity;BMP_temperature;BMP_pressure;BME280_temperature;BME280_humidity;BME280_pressure;Samples;Min_cycle;Max_cycle;Signal;HPM_P1;HPM_P2
2021/05/01 00:46:03;;;;;;;51.43;39.37;;;7.90;71.40;;;;;;5387634;22;20465;-89
2021/05/01 00:48:33;;;;;;;56.20;40.30;;;8.40;77.60;;;;;;4985152;28;20425;-89
2021/05/01 00:51:03;;;;;;;55.30;42.15;;;7.70;73.10;;;;;;5001357;28;20425;-89
2021/05/01 00:53:29;;;;;;;60.40;40.80;;;10.80;73.40;;;;;;4985007;28;20197;-89
2021/05/01 01:47:56;;;;;;;59.00;42.42;;;8.10;84.90;;;;;;4955695;22;20496;-89
2021/05/01 01:50:23;;;;;;;59.17;41.47;;;7.10;75.00;;;;;;4941732;29;20202;-88
2021/05/01 01:52:52;;;;;;;63.20;43.47;;;8.90;77.60;;;;;;4960935;28;20500;-88
2021/05/01 01:55:21;;;;;;;61.30;42.47;;;11.30;84.10;;;;;;4945164;29;20186;-89
2021/05/01 01:57:47;;;;;;;56.63;42.60;;;11.30;79.40;;;;;;4943896;29;20196;-90
2021/05/01 02:00:18;;;;;;;59.83;43.95;;;10.90;78.70;;;;;;4944788;28;20498;-88
2021/05/01 02:02:47;;;;;;;56.13;41.07;;;9.60;78.90;;;;;;4944545;28;20218;-89
2021/05/01 02:05:13;;;;;;;56.80;42.60;;;11.00;83.00;;;;;;4961900;28;20416;-92
2021/05/01 02:07:44;;;;;;;62.10;39.90;;;10.80;81.10;;;;;;4961704;28;20707;-89
2021/05/01 02:10:17;;;;;;;66.63;43.93;;;9.90;82.10;;;;;;4961804;28;20406;-89
2021/05/01 02:12:43;;;;;;;61.20;42.30;;;8.40;75.00;;;;;;4961678;28;20407;-89
2021/05/01 02:15:14;;;;;;;73.80;46.67;;;10.00;81.40;;;;;;4961181;28;20435;-88
2021/05/01 02:17:43;;;;;;;61.90;42.97;;;9.30;77.50;;;;;;4944917;28;20202;-88
2021/05/01 02:20:11;;;;;;;61.97;41.97;;;8.20;76.30;;;;;;4960549;28;20927;-89
2021/05/01 02:22:37;;;;;;;69.00;47.27;;;9.10;77.90;;;;;;4960117;28;20465;-89
2021/05/01 02:25:07;;;;;;;70.17;43.87;;;7.40;79.80;;;;;;4945020;29;20409;-90
2021/05/01 02:27:33;;;;;;;65.67;47.47;;;8.10;77.90;;;;;;4945465;28;20411;-90
2021/05/01 02:30:00;;;;;;;67.60;43.20;;;10.30;83.10;;;;;;4944704;28;20491;-89
2021/05/01 02:32:29;;;;;;;60.33;43.33;;;9.00;76.50;;;;;;4945118;28;20178;-89
2021/05/01 02:34:56;;;;;;;63.30;43.85;;;10.90;83.30;;;;;;4944436;28;20427;-89
2021/05/01 02:37:22;;;;;;;64.63;43.00;;;7.90;75.10;;;;;;4944640;29;20180;-89
2021/05/01 02:53:16;;;;;;;73.13;43.27;;;8.30;73.40;;;;;;5251348;23;20481;-89
2021/05/01 02:55:41;;;;;;;73.55;45.95;;;6.80;79.40;;;;;;4998866;28;20421;-89
2021/05/01 02:58:07;;;;;;;77.43;49.57;;;11.80;85.60;;;;;;4998415;28;20181;-89
2021/05/01 03:01:02;;;;;;;76.57;46.90;;;7.30;75.10;;;;;;4998232;28;20184;-89
2021/05/01 03:03:50;;;;;;;75.60;47.77;;;9.60;80.80;;;;;;4997622;28;20214;-88
2021/05/01 03:06:36;;;;;;;81.13;46.20;;;9.30;77.90;;;;;;4981215;28;20485;-88
2021/05/01 03:09:15;;;;;;;89.93;49.83;;;7.70;76.40;;;;;;4998242;28;20174;-89
2021/05/01 03:12:12;;;;;;;87.38;49.75;;;8.90;80.20;;;;;;4996888;28;20416;-90
2021/05/01 03:14:49;;;;;;;79.22;48.25;;;8.70;78.30;;;;;;4998700;28;20154;-89
2021/05/01 03:17:47;;;;;;;87.57;48.27;;;7.80;83.20;;;;;;4981870;28;20165;-89
2021/05/01 03:20:28;;;;;;;86.53;47.85;;;8.90;79.50;;;;;;4982014;28;20428;-89
2021/05/01 03:23:00;;;;;;;78.63;47.47;;;8.60;78.10;;;;;;4995921;28;20302;-88
2021/05/01 03:26:37;;;;;;;83.80;49.63;;;8.10;77.30;;;;;;4996683;28;20436;-89
2021/05/01 03:34:30;;;;;;;76.47;43.63;;;7.90;76.00;;;;;;5643600;23;20490;-88
2021/05/01 03:36:55;;;;;;;80.63;46.17;;;9.90;86.40;;;;;;4978007;28;20178;-88
2021/05/01 03:39:21;;;;;;;82.47;47.80;;;10.50;84.10;;;;;;4979152;29;20414;-89
2021/05/01 03:41:48;;;;;;;82.60;46.40;;;9.00;83.70;;;;;;4976799;29;20182;-88
2021/05/01 03:44:14;;;;;;;80.97;47.93;;;10.90;83.10;;;;;;4962229;28;20536;-88
2021/05/01 03:46:40;;;;;;;79.30;46.37;;;9.20;85.20;;;;;;4976774;28;20461;-89
2021/05/01 03:49:08;;;;;;;81.30;46.13;;;9.20;82.30;;;;;;4977218;29;20162;-89
2021/05/01 03:51:34;;;;;;;84.30;50.00;;;9.20;80.50;;;;;;4976711;29;20893;-89
2021/05/01 03:54:00;;;;;;;81.90;48.63;;;7.70;80.60;;;;;;4975856;28;20442;-90
2021/05/01 03:56:26;;;;;;;80.53;49.88;;;8.30;82.30;;;;;;4958964;29;20458;-88
2021/05/01 03:58:54;;;;;;;82.25;45.95;;;10.00;81.40;;;;;;4974616;29;20175;-90
2021/05/01 04:02:16;;;;;;;72.53;47.33;;;8.10;75.60;;;;;;4975598;28;20182;-90
2021/05/01 04:04:55;;;;;;;73.88;46.15;;;9.20;75.10;;;;;;4955915;29;20440;-89
2021/05/01 04:07:24;;;;;;;77.33;46.97;;;7.10;75.00;;;;;;4958946;29;20174;-90
2021/05/01 04:10:01;;;;;;;68.37;46.10;;;9.90;79.10;;;;;;4944196;29;20434;-88
2021/05/01 04:12:42;;;;;;;61.10;44.93;;;8.10;74.00;;;;;;4971076;29;20407;-89
2021/05/01 04:15:13;;;;;;;70.87;46.20;;;8.70;75.10;;;;;;4976226;29;20411;-89
2021/05/01 04:17:45;;;;;;;69.17;45.90;;;7.00;72.90;;;;;;4960503;28;20465;-89
2021/05/01 04:20:34;;;;;;;61.57;43.63;;;9.00;73.90;;;;;;4962624;29;20453;-89
2021/05/01 04:23:03;;;;;;;58.70;41.23;;;9.40;78.50;;;;;;4958026;29;20563;-90
2021/05/01 04:25:33;;;;;;;58.80;41.60;;;7.40;73.50;;;;;;4978361;28;20441;-89
2021/05/01 04:28:10;;;;;;;53.80;41.43;;;7.20;76.70;;;;;;4959561;29;20191;-88
2021/05/01 04:30:37;;;;;;;58.75;42.38;;;5.90;68.90;;;;;;4961901;28;20422;-86
2021/05/01 04:33:22;;;;;;;61.13;42.70;;;8.50;75.40;;;;;;4976999;29;20166;-88
2021/05/01 04:38:49;;;;;;;56.10;40.33;;;8.10;71.70;;;;;;4964319;28;20437;-89
2021/05/01 04:41:48;;;;;;;53.47;38.77;;;9.00;73.00;;;;;;4976382;28;20433;-88
2021/05/01 04:44:20;;;;;;;58.50;41.47;;;7.20;69.80;;;;;;4974491;29;20434;-89
2021/05/01 04:47:20;;;;;;;54.13;39.70;;;7.90;71.70;;;;;;4948431;29;20398;-90
2021/05/01 04:50:03;;;;;;;54.77;40.83;;;8.20;71.40;;;;;;4961205;29;20498;-89
2021/05/01 04:52:59;;;;;;;55.07;39.60;;;8.30;71.70;;;;;;4979398;28;20433;-88
2021/05/01 04:55:51;;;;;;;55.97;36.53;;;8.10;71.10;;;;;;4981534;28;20426;-89
2021/05/01 04:58:51;;;;;;;56.07;37.50;;;9.20;75.20;;;;;;4946034;29;20427;-89
2021/05/01 05:04:23;;;;;;;53.60;39.13;;;7.60;83.30;;;;;;5022517;23;20234;-88
2021/05/01 05:07:10;;;;;;;53.97;38.70;;;10.50;80.60;;;;;;4983055;28;20182;-88
2021/05/01 05:09:53;;;;;;;52.83;40.10;;;7.90;71.90;;;;;;4982571;28;20161;-88
2021/05/01 05:12:21;;;;;;;58.20;39.53;;;7.00;70.50;;;;;;4977320;28;20425;-87
2021/05/01 05:14:47;;;;;;;53.40;39.27;;;7.60;72.90;;;;;;4965196;28;20420;-89
2021/05/01 05:17:12;;;;;;;50.90;36.60;;;7.60;73.60;;;;;;4982836;28;20166;-88
2021/05/01 05:19:38;;;;;;;56.50;37.23;;;9.30;77.60;;;;;;4964206;28;20174;-88
2021/05/01 05:22:04;;;;;;;48.97;38.90;;;7.80;75.30;;;;;;4982190;28;20170;-88
2021/05/01 05:24:29;;;;;;;58.67;39.33;;;10.70;78.30;;;;;;4967321;28;20240;-87
2021/05/01 05:26:55;;;;;;;52.17;37.80;;;6.60;70.80;;;;;;4982467;28;20181;-88
2021/05/01 05:29:21;;;;;;;54.57;37.10;;;9.00;74.40;;;;;;4983083;28;20661;-87
2021/05/01 05:31:46;;;;;;;53.30;38.20;;;6.30;71.70;;;;;;4968145;28;20171;-87
2021/05/01 05:34:12;;;;;;;48.70;36.13;;;5.90;70.80;;;;;;4982814;28;20176;-86
2021/05/01 05:36:39;;;;;;;41.20;31.20;;;7.80;74.20;;;;;;4968806;28;20178;-86
2021/05/01 05:39:08;;;;;;;47.77;34.63;;;7.40;77.30;;;;;;4969885;28;20188;-88
2021/05/01 05:41:34;;;;;;;44.80;33.97;;;9.30;72.70;;;;;;4964861;28;20437;-87
2021/05/01 05:44:00;;;;;;;45.37;32.20;;;9.40;74.00;;;;;;4966014;28;20484;-88
2021/05/01 05:46:26;;;;;;;37.00;30.40;;;8.50;69.90;;;;;;4986862;28;20173;-87
2021/05/01 05:48:52;;;;;;;41.77;32.30;;;9.00;68.10;;;;;;4985653;28;20421;-87
2021/05/01 05:51:18;;;;;;;36.80;30.60;;;10.20;72.10;;;;;;4966662;28;20426;-88
2021/05/01 05:53:44;;;;;;;33.67;30.03;;;10.50;69.70;;;;;;4966180;28;20580;-88
2021/05/01 05:56:09;;;;;;;38.80;32.53;;;10.90;66.10;;;;;;4983299;28;20178;-87
2021/05/01 05:58:36;;;;;;;40.80;30.40;;;11.60;66.50;;;;;;4966385;28;20650;-88
2021/05/01 06:01:02;;;;;;;33.37;27.27;;;8.30;59.20;;;;;;4961578;28;20190;-86
2021/05/01 06:03:30;;;;;;;34.30;27.63;;;11.90;60.30;;;;;;4945148;29;21077;-88
2021/05/01 06:06:00;;;;;;;35.17;28.50;;;10.60;59.20;;;;;;4946889;29;20541;-88
2021/05/01 06:08:29;;;;;;;32.87;27.40;;;13.00;59.50;;;;;;4945331;29;20430;-87
2021/05/01 06:10:56;;;;;;;35.10;27.27;;;10.00;57.20;;;;;;4944379;29;20422;-87
2021/05/01 06:13:26;;;;;;;32.13;27.20;;;11.90;57.10;;;;;;4940426;29;20450;-88
2021/05/01 06:15:55;;;;;;;32.70;27.23;;;11.20;56.70;;;;;;4955037;29;20782;-87
2021/05/01 06:18:22;;;;;;;33.50;25.47;;;12.40;57.90;;;;;;4940016;29;20438;-87
2021/05/01 06:20:48;;;;;;;29.23;25.70;;;9.90;56.70;;;;;;4957789;29;20418;-89
2021/05/01 06:23:19;;;;;;;30.23;23.63;;;11.90;58.90;;;;;;4940943;29;20488;-87
2021/05/01 06:25:48;;;;;;;32.10;27.10;;;12.30;58.20;;;;;;4963702;29;20493;-88
2021/05/01 06:28:15;;;;;;;29.17;23.30;;;12.30;58.60;;;;;;4939532;29;20425;-87
2021/05/01 06:30:42;;;;;;;38.00;26.60;;;9.40;58.00;;;;;;4939144;29;20964;-87
2021/05/01 06:33:11;;;;;;;30.17;25.73;;;11.40;58.70;;;;;;4957398;29;20573;-88
2021/05/01 06:35:38;;;;;;;29.57;23.50;;;9.30;57.70;;;;;;4940159;29;20422;-88
2021/05/01 06:38:04;;;;;;;35.87;24.83;;;10.10;57.60;;;;;;4958978;29;20454;-87
2021/05/01 06:40:37;;;;;;;34.40;26.30;;;9.80;58.20;;;;;;4947626;29;20426;-88
2021/05/01 06:43:13;;;;;;;38.33;26.57;;;10.00;57.70;;;;;;4946207;29;20474;-87
2021/05/01 06:45:41;;;;;;;33.13;24.47;;;10.10;57.90;;;;;;4941641;29;20658;-88
2021/05/01 06:48:09;;;;;;;29.07;21.90;;;10.40;57.60;;;;;;4940118;29;20442;-87
2021/05/01 06:50:35;;;;;;;28.13;21.10;;;10.50;57.00;;;;;;4941868;29;20429;-87
2021/05/01 06:53:01;;;;;;;27.40;22.87;;;9.80;57.60;;;;;;4960371;29;20422;-87
2021/05/01 06:55:29;;;;;;;23.67;20.90;;;12.10;57.80;;;;;;4942925;29;20429;-87
2021/05/01 06:57:57;;;;;;;22.93;19.90;;;11.50;54.50;;;;;;4939589;29;20434;-87
2021/05/01 07:00:25;;;;;;;23.70;18.80;;;11.00;54.20;;;;;;4937499;29;20474;-88
2021/05/01 07:03:02;;;;;;;27.43;19.10;;;10.10;54.20;;;;;;4631416;28;9999986;-89
2021/05/01 07:05:34;;;;;;;18.23;16.10;;;10.30;55.00;;;;;;4962283;28;20229;-87
2021/05/01 07:08:00;;;;;;;16.67;14.70;;;11.20;55.40;;;;;;4982822;28;20911;-87
2021/05/01 07:10:26;;;;;;;18.13;16.27;;;13.20;54.50;;;;;;4960643;28;20517;-88
2021/05/01 07:12:52;;;;;;;20.90;16.53;;;14.70;54.80;;;;;;4977612;28;20491;-88
2021/05/01 07:15:19;;;;;;;16.70;15.17;;;14.10;51.20;;;;;;4978171;28;20162;-87
2021/05/01 07:17:48;;;;;;;19.00;15.60;;;13.60;49.10;;;;;;4959394;28;20174;-88
2021/05/01 07:20:15;;;;;;;23.43;19.10;;;13.30;49.20;;;;;;4961499;28;20492;-87
2021/05/01 07:22:41;;;;;;;19.33;17.30;;;14.50;51.60;;;;;;4967799;28;21031;-86
2021/05/01 07:25:10;;;;;;;21.67;16.97;;;13.20;50.60;;;;;;4966750;28;20441;-87
2021/05/01 07:28:18;;;;;;;18.80;17.00;;;14.50;49.10;;;;;;4990638;28;20437;-88
2021/05/01 07:31:06;;;;;;;18.00;16.17;;;14.80;46.40;;;;;;5780733;23;20475;-90
2021/05/01 07:33:45;;;;;;;23.13;19.70;;;15.60;45.80;;;;;;4978415;28;20440;-89
2021/05/01 07:36:18;;;;;;;20.03;18.13;;;17.70;47.80;;;;;;5253768;23;20496;-89
2021/05/01 07:38:44;;;;;;;21.73;19.43;;;15.50;45.90;;;;;;5193570;23;20473;-87
2021/05/01 07:41:19;;;;;;;19.70;17.70;;;15.70;45.80;;;;;;4974210;28;20421;-90
2021/05/01 07:44:15;;;;;;;21.20;19.17;;;16.70;44.10;;;;;;4976603;28;20524;-91
2021/05/01 07:46:41;;;;;;;19.80;17.70;;;14.40;42.00;;;;;;4982777;28;20437;-85
2021/05/01 07:49:08;;;;;;;18.47;16.60;;;16.80;43.20;;;;;;4982731;28;20406;-85
2021/05/01 07:51:36;;;;;;;17.60;15.77;;;15.90;41.00;;;;;;4978029;28;20437;-82
2021/05/01 07:54:03;;;;;;;14.20;13.03;;;17.90;38.40;;;;;;4973869;28;20917;-83
2021/05/01 07:56:28;;;;;;;15.97;14.37;;;18.20;36.20;;;;;;4973976;28;20943;-83
2021/05/01 07:58:56;;;;;;;17.60;16.10;;;17.40;36.10;;;;;;4973510;28;20409;-84
2021/05/01 08:01:25;;;;;;;15.87;14.50;;;16.90;37.70;;;;;;4973518;28;20257;-83
2021/05/01 08:03:57;;;;;;;14.10;12.77;;;17.10;37.90;;;;;;4987467;28;20520;-89
2021/05/01 08:06:26;;;;;;;16.77;15.23;;;17.60;36.40;;;;;;4975521;28;20422;-90
2021/05/01 08:08:54;;;;;;;16.87;15.27;;;17.90;36.90;;;;;;4973972;28;20429;-90
2021/05/01 08:11:20;;;;;;;15.90;14.60;;;17.80;36.00;;;;;;4975901;28;20494;-88
2021/05/01 08:13:53;;;;;;;14.60;13.60;;;18.10;35.30;;;;;;4974802;28;20418;-89
2021/05/01 08:16:35;;;;;;;15.47;14.27;;;18.20;35.00;;;;;;4973567;28;20429;-90
2021/05/01 08:19:20;;;;;;;14.33;13.10;;;19.20;36.20;;;;;;4952202;29;20473;-89
2021/05/01 08:21:47;;;;;;;14.50;13.00;;;21.20;33.40;;;;;;4973155;29;20410;-88
2021/05/01 08:24:20;;;;;;;13.20;12.00;;;19.60;31.20;;;;;;4972680;28;20956;-88
2021/05/01 08:27:05;;;;;;;14.70;13.40;;;19.50;31.10;;;;;;4965474;29;20998;-85
2021/05/01 08:29:31;;;;;;;12.77;11.87;;;18.60;31.10;;;;;;4969662;28;20438;-89
2021/05/01 08:31:56;;;;;;;14.40;13.40;;;21.00;31.90;;;;;;4963012;29;20189;-88
2021/05/01 08:34:22;;;;;;;13.53;12.63;;;18.70;30.00;;;;;;4963205;29;20198;-88
2021/05/01 08:36:48;;;;;;;13.70;12.40;;;21.60;32.70;;;;;;4985472;28;20261;-88
2021/05/01 08:39:13;;;;;;;11.90;11.10;;;20.10;32.50;;;;;;4970675;28;20229;-88
2021/05/01 08:41:39;;;;;;;12.93;11.97;;;18.90;29.40;;;;;;4968466;28;20472;-88
2021/05/01 08:44:08;;;;;;;12.60;11.70;;;20.70;30.80;;;;;;4966782;28;20289;-88
2021/05/01 08:46:34;;;;;;;14.27;13.17;;;20.60;29.60;;;;;;4965371;28;20417;-91
2021/05/01 08:49:02;;;;;;;15.13;13.93;;;23.00;29.90;;;;;;4967097;28;20520;-90
2021/05/01 08:51:27;;;;;;;13.23;12.23;;;22.00;29.40;;;;;;4968235;28;20478;-91
2021/05/01 08:53:53;;;;;;;15.27;14.00;;;23.30;31.10;;;;;;4968668;28;20504;-89
2021/05/01 08:56:19;;;;;;;14.57;13.40;;;22.20;29.10;;;;;;4974617;28;20178;-89
2021/05/01 08:58:47;;;;;;;12.23;11.43;;;22.90;29.50;;;;;;4966347;28;20328;-89
2021/05/01 09:01:13;;;;;;;12.90;11.80;;;20.40;28.00;;;;;;4968014;28;20435;-89
2021/05/01 09:03:40;;;;;;;14.13;13.03;;;20.30;27.80;;;;;;4967598;29;20472;-90
2021/05/01 09:06:26;;;;;;;13.12;12.17;;;20.60;28.60;;;;;;4949612;28;10001281;-90
2021/05/01 09:08:56;;;;;;;13.97;12.97;;;22.10;29.90;;;;;;4996504;28;20374;-87
2021/05/01 09:11:45;;;;;;;16.20;14.90;;;19.60;28.20;;;;;;4995564;28;20417;-89
2021/05/01 09:14:22;;;;;;;14.07;12.60;;;20.20;27.90;;;;;;4967390;28;20440;-89
2021/05/01 09:17:24;;;;;;;14.43;13.37;;;21.10;28.20;;;;;;4987325;28;20416;-88
2021/05/01 09:20:04;;;;;;;16.00;14.40;;;21.80;28.40;;;;;;4911459;29;20433;-89
2021/05/01 09:22:29;;;;;;;15.40;14.20;;;22.70;28.50;;;;;;4981685;28;20492;-88
2021/05/01 09:25:07;;;;;;;15.40;14.30;;;23.00;28.20;;;;;;4964579;28;20937;-89
2021/05/01 09:27:34;;;;;;;12.70;11.57;;;23.20;27.40;;;;;;4980110;28;20173;-89
2021/05/01 09:30:15;;;;;;;11.83;11.03;;;24.00;27.10;;;;;;4982778;28;20509;-88
2021/05/01 09:32:41;;;;;;;12.53;11.73;;;23.40;25.70;;;;;;4962901;28;20792;-90
2021/05/01 09:35:08;;;;;;;15.37;14.37;;;23.70;25.50;;;;;;4962599;28;20413;-90
2021/05/01 09:37:43;;;;;;;14.80;13.90;;;23.00;26.60;;;;;;4963540;28;20177;-88
2021/05/01 09:40:09;;;;;;;14.70;13.70;;;24.40;26.50;;;;;;4967919;28;20512;-89
2021/05/01 09:42:36;;;;;;;13.20;12.30;;;24.40;26.30;;;;;;4966828;28;20468;-89
2021/05/01 09:45:19;;;;;;;14.23;13.23;;;24.60;25.50;;;;;;4967614;28;20484;-86
2021/05/01 09:47:52;;;;;;;13.87;12.97;;;24.30;26.00;;;;;;4966637;28;20437;-90
2021/05/01 09:50:30;;;;;;;14.03;12.90;;;24.50;26.60;;;;;;4969436;28;20440;-89
2021/05/01 09:53:00;;;;;;;13.10;12.20;;;21.40;27.30;;;;;;4964891;28;20421;-89
2021/05/01 09:55:41;;;;;;;13.53;12.60;;;21.50;28.10;;;;;;4968307;28;20980;-89
2021/05/01 09:58:18;;;;;;;14.73;13.53;;;20.60;28.30;;;;;;4638332;28;10000359;-89
2021/05/01 10:00:45;;;;;;;12.93;12.03;;;19.10;29.30;;;;;;4981505;28;20210;-90
2021/05/01 10:03:30;;;;;;;10.90;9.90;;;19.00;27.20;;;;;;4964169;28;20541;-90
2021/05/01 10:06:00;;;;;;;9.20;8.70;;;17.20;26.70;;;;;;4968115;28;20524;-90
2021/05/01 10:08:31;;;;;;;10.20;9.60;;;16.40;25.80;;;;;;4984741;28;20414;-89
2021/05/01 10:10:58;;;;;;;11.10;10.50;;;18.90;27.20;;;;;;4976253;28;20445;-89
2021/05/01 10:13:24;;;;;;;11.10;10.20;;;21.00;26.50;;;;;;4994522;28;20414;-90
2021/05/01 10:15:53;;;;;;;13.00;11.90;;;21.60;26.40;;;;;;4957556;28;21108;-91
2021/05/01 10:18:20;;;;;;;13.47;12.33;;;23.50;27.20;;;;;;4984994;28;20448;-90
2021/05/01 10:20:51;;;;;;;12.87;11.93;;;22.90;27.20;;;;;;4983500;28;20405;-89
2021/05/01 10:23:20;;;;;;;12.20;11.10;;;24.90;26.70;;;;;;4963573;28;20468;-90
2021/05/01 10:25:47;;;;;;;13.50;12.50;;;23.30;24.80;;;;;;4965551;28;20512;-87
2021/05/01 10:28:17;;;;;;;13.33;12.43;;;23.60;24.70;;;;;;4966031;28;20524;-88
2021/05/01 10:30:53;;;;;;;12.60;11.90;;;24.30;25.40;;;;;;4968326;28;20422;-90
2021/05/01 10:36:09;;;;;;;11.50;10.80;;;26.30;24.20;;;;;;4988402;28;20441;-90
2021/05/01 10:38:35;;;;;;;11.43;10.67;;;25.80;22.80;;;;;;4971079;28;20545;-90
2021/05/01 10:41:06;;;;;;;11.73;11.03;;;27.60;23.40;;;;;;4968665;28;20437;-91
2021/05/01 10:43:35;;;;;;;12.87;11.83;;;27.50;23.50;;;;;;4978485;28;20417;-89
2021/05/01 10:46:06;;;;;;;12.83;11.93;;;27.10;24.80;;;;;;4961193;28;20477;-89
2021/05/01 10:48:33;;;;;;;14.73;13.53;;;25.60;24.40;;;;;;4961218;28;20417;-89
2021/05/01 10:51:05;;;;;;;13.63;12.47;;;23.40;24.80;;;;;;4979185;28;20417;-89
2021/05/01 10:53:32;;;;;;;12.23;11.23;;;22.90;25.70;;;;;;4965582;28;20477;-88
2021/05/01 10:55:58;;;;;;;12.63;11.73;;;24.30;26.40;;;;;;4964280;28;20538;-89
2021/05/01 10:58:44;;;;;;;12.60;11.80;;;21.50;25.70;;;;;;4983692;28;20508;-90
2021/05/01 11:01:32;;;;;;;11.80;11.00;;;20.70;25.30;;;;;;4962406;28;20460;-92
2021/05/01 11:04:03;;;;;;;12.73;11.90;;;20.70;25.30;;;;;;4964266;28;20443;-90
2021/05/01 11:06:38;;;;;;;12.00;11.03;;;21.80;26.10;;;;;;4968164;28;20430;-88
2021/05/01 11:09:09;;;;;;;11.50;10.83;;;22.70;25.00;;;;;;4950326;29;20410;-90
2021/05/01 11:11:46;;;;;;;11.07;10.17;;;23.70;24.30;;;;;;4955027;28;20441;-92
2021/05/01 11:14:26;;;;;;;11.83;11.03;;;24.60;24.70;;;;;;4984790;28;20477;-89
2021/05/01 11:17:12;;;;;;;13.60;12.20;;;23.50;24.90;;;;;;4962392;28;20472;-90
2021/05/01 11:19:46;;;;;;;11.43;10.40;;;20.40;24.50;;;;;;4978085;28;20434;-89
2021/05/01 11:22:14;;;;;;;11.23;10.47;;;21.80;25.20;;;;;;4981701;28;20413;-89
2021/05/01 11:24:43;;;;;;;11.47;10.77;;;22.40;24.70;;;;;;4965814;28;20434;-91
2021/05/01 11:27:09;;;;;;;11.00;10.23;;;22.70;24.70;;;;;;4979812;28;20413;-88
2021/05/01 11:29:35;;;;;;;11.30;10.43;;;22.00;23.50;;;;;;4961240;28;20424;-90
2021/05/01 11:32:02;;;;;;;10.93;10.20;;;23.80;23.80;;;;;;4977776;28;20190;-88
2021/05/01 11:34:31;;;;;;;9.97;9.27;;;25.10;24.40;;;;;;4962836;28;20568;-88
2021/05/01 11:37:01;;;;;;;10.90;10.20;;;25.60;23.90;;;;;;4959981;28;20418;-90
2021/05/01 11:39:28;;;;;;;11.90;10.90;;;25.30;23.10;;;;;;4967248;28;20476;-90
2021/05/01 11:41:56;;;;;;;10.47;9.87;;;27.90;24.00;;;;;;4968027;28;20444;-90
2021/05/01 11:44:25;;;;;;;10.20;9.57;;;27.30;23.50;;;;;;4952049;28;20429;-91
2021/05/01 11:46:59;;;;;;;9.60;9.13;;;25.70;23.00;;;;;;4954680;28;20425;-91
2021/05/01 11:49:27;;;;;;;12.30;11.43;;;23.40;23.70;;;;;;4987651;28;20440;-91
2021/05/01 11:52:09;;;;;;;11.13;10.30;;;21.40;24.50;;;;;;4985994;28;20421;-88
2021/05/01 11:54:54;;;;;;;11.43;10.63;;;21.40;25.80;;;;;;4970228;28;20444;-90
2021/05/01 11:57:49;;;;;;;9.60;9.00;;;19.70;25.50;;;;;;4970146;28;20480;-92
2021/05/01 12:00:38;;;;;;;10.50;9.90;;;19.00;25.70;;;;;;4992237;28;20418;-87
2021/05/01 12:03:06;;;;;;;10.40;9.60;;;20.60;27.10;;;;;;4973763;28;20417;-89
2021/05/01 12:05:36;;;;;;;11.10;10.40;;;22.10;27.40;;;;;;4969979;28;20575;-90
2021/05/01 12:08:21;;;;;;;10.47;9.60;;;21.50;26.10;;;;;;4986826;28;20408;-90
2021/05/01 12:10:53;;;;;;;10.37;9.60;;;20.80;26.00;;;;;;4977070;28;20465;-87
2021/05/01 12:13:28;;;;;;;11.03;10.33;;;19.60;25.60;;;;;;4987659;28;20473;-87
2021/05/01 12:16:00;;;;;;;11.67;10.87;;;19.50;25.70;;;;;;4968174;28;20416;-89
2021/05/01 12:18:47;;;;;;;13.40;12.50;;;19.90;26.40;;;;;;4963270;28;20457;-87
2021/05/01 12:21:24;;;;;;;10.70;9.90;;;18.30;26.00;;;;;;4983001;28;20409;-89
2021/05/01 12:29:21;;;;;;;10.87;10.13;;;21.70;24.40;;;;;;4855297;26;20480;-89
2021/05/01 12:31:49;;;;;;;10.90;10.10;;;21.20;24.80;;;;;;4995002;28;20492;-88
2021/05/01 12:36:54;;;;;;;11.57;10.47;;;20.70;25.10;;;;;;5265445;22;20488;-90
2021/05/01 12:39:23;;;;;;;11.27;10.27;;;21.50;28.10;;;;;;4997871;28;20425;-91
2021/05/01 12:41:50;;;;;;;10.73;10.03;;;19.90;26.70;;;;;;4995962;28;20421;-90
2021/05/01 12:46:49;;;;;;;11.43;10.83;;;19.00;26.00;;;;;;4991829;28;20536;-90
2021/05/01 12:49:19;;;;;;;12.53;11.53;;;20.40;28.30;;;;;;4995785;28;20428;-90
2021/05/01 12:51:57;;;;;;;16.20;15.00;;;18.40;26.70;;;;;;4985821;28;20409;-89
2021/05/01 12:54:28;;;;;;;12.03;11.10;;;18.90;26.70;;;;;;4979612;28;20520;-87
2021/05/01 12:56:57;;;;;;;11.13;10.43;;;18.70;26.50;;;;;;4979019;28;20480;-89
2021/05/01 12:59:41;;;;;;;12.10;11.30;;;20.90;27.40;;;;;;4961270;28;20449;-86
2021/05/01 13:02:21;;;;;;;12.80;10.83;;;19.10;26.10;;;;;;4975472;28;20405;-87
2021/05/01 13:05:08;;;;;;;11.50;10.80;;;19.80;25.70;;;;;;4976880;28;20484;-90
2021/05/01 13:07:36;;;;;;;12.03;11.13;;;19.70;25.50;;;;;;4961256;28;20432;-89
2021/05/01 13:10:03;;;;;;;12.80;12.00;;;19.20;25.60;;;;;;4976187;28;20499;-85
2021/05/01 13:12:31;;;;;;;12.03;11.30;;;18.70;26.10;;;;;;4976304;28;20432;-88
2021/05/01 13:14:56;;;;;;;11.00;10.10;;;18.80;26.80;;;;;;4986232;28;20433;-90
2021/05/01 13:17:42;;;;;;;13.63;12.63;;;17.70;25.80;;;;;;4993421;28;20418;-90
2021/05/01 13:20:15;;;;;;;11.73;11.13;;;17.70;26.80;;;;;;4992783;28;20193;-91
2021/05/01 13:22:48;;;;;;;11.53;10.70;;;17.10;26.80;;;;;;4981222;28;20418;-89
2021/05/01 13:25:23;;;;;;;11.60;10.60;;;17.00;26.70;;;;;;4982768;28;20421;-88
2021/05/01 13:27:53;;;;;;;10.37;9.77;;;17.50;26.80;;;;;;4962220;28;20436;-87
2021/05/01 13:30:32;;;;;;;11.53;10.63;;;18.10;26.50;;;;;;4978374;28;20487;-90
2021/05/01 13:33:45;;;;;;;10.70;9.97;;;17.90;26.60;;;;;;4965874;28;20461;-86
2021/05/01 13:36:32;;;;;;;10.30;9.70;;;17.90;26.00;;;;;;5251206;22;20552;-86
2021/05/01 13:38:57;;;;;;;9.93;9.33;;;19.10;27.30;;;;;;4968839;28;20549;-87
2021/05/01 13:41:23;;;;;;;11.13;10.23;;;19.90;27.40;;;;;;4974627;28;20477;-88
2021/05/01 13:43:52;;;;;;;11.00;10.20;;;17.70;26.30;;;;;;4975240;28;20656;-89
2021/05/01 13:46:20;;;;;;;11.03;10.23;;;18.10;26.40;;;;;;4956746;28;20417;-88
2021/05/01 13:48:51;;;;;;;9.90;9.20;;;17.60;25.80;;;;;;4973650;28;20424;-89
2021/05/01 13:51:28;;;;;;;11.73;10.77;;;17.70;26.30;;;;;;4974934;28;20516;-89
2021/05/01 13:54:11;;;;;;;12.50;11.60;;;17.70;26.70;;;;;;4978470;28;20523;-88
2021/05/01 13:56:44;;;;;;;12.23;11.33;;;17.60;26.60;;;;;;4984190;28;20921;-90
2021/05/01 14:09:07;;;;;;;12.70;11.80;;;16.90;26.90;;;;;;3994459;28;21955;-88
2021/05/01 14:11:32;;;;;;;12.93;11.87;;;17.20;27.00;;;;;;4936323;29;20442;-87
2021/05/01 14:13:58;;;;;;;12.97;12.07;;;17.20;27.50;;;;;;4953275;29;20588;-89
2021/05/01 14:16:24;;;;;;;12.00;11.10;;;17.10;27.30;;;;;;4954097;29;20221;-87
2021/05/01 14:18:49;;;;;;;11.77;11.07;;;17.10;27.00;;;;;;4954208;29;20190;-87
2021/05/01 14:21:15;;;;;;;11.30;10.37;;;16.90;26.70;;;;;;4988465;23;21161;-88
2021/05/01 14:23:41;;;;;;;15.30;13.93;;;16.90;26.90;;;;;;4956324;28;20189;-86
2021/05/01 14:26:15;;;;;;;11.90;10.80;;;16.80;26.40;;;;;;4955202;28;20198;-88
2021/05/01 14:28:40;;;;;;;11.20;10.50;;;16.70;26.10;;;;;;4955674;28;20513;-86
2021/05/01 14:31:19;;;;;;;11.33;10.60;;;16.80;26.50;;;;;;4973193;28;21107;-86
2021/05/01 14:33:57;;;;;;;11.83;11.07;;;16.70;27.00;;;;;;4955654;28;20233;-87
2021/05/01 14:36:23;;;;;;;11.50;10.53;;;17.70;28.10;;;;;;4972759;28;20422;-88
2021/05/01 14:38:49;;;;;;;11.77;10.97;;;17.40;27.60;;;;;;4974981;28;20489;-88
2021/05/01 14:41:22;;;;;;;11.73;10.90;;;17.20;28.00;;;;;;4972407;28;20483;-90
2021/05/01 14:43:48;;;;;;;11.63;10.93;;;17.90;27.90;;;;;;4955525;28;20181;-87
2021/05/01 14:46:19;;;;;;;12.80;11.90;;;18.40;28.30;;;;;;4973692;28;20425;-88
2021/05/01 14:49:04;;;;;;;13.03;11.93;;;15.40;26.50;;;;;;4955783;28;20429;-89
2021/05/01 14:51:30;;;;;;;13.03;12.07;;;17.10;27.10;;;;;;4970349;28;20441;-86
2021/05/01 14:54:15;;;;;;;12.50;11.30;;;16.60;26.90;;;;;;4946049;28;20991;-87
2021/05/01 14:57:12;;;;;;;11.67;10.87;;;16.70;26.30;;;;;;4964377;28;20441;-87
2021/05/01 14:59:59;;;;;;;15.27;14.27;;;17.20;26.20;;;;;;4953636;29;20430;-87
2021/05/01 15:02:30;;;;;;;11.83;11.00;;;17.50;25.90;;;;;;4954211;28;20441;-85
2021/05/01 15:05:15;;;;;;;10.90;9.90;;;17.50;25.70;;;;;;4972346;28;20809;-85
2021/05/01 15:07:46;;;;;;;11.73;10.93;;;17.20;25.70;;;;;;4956105;28;20430;-88
2021/05/01 15:10:19;;;;;;;11.43;10.73;;;17.00;25.70;;;;;;4974236;28;20429;-88
2021/05/01 15:13:07;;;;;;;10.67;10.07;;;18.90;27.40;;;;;;4956015;28;20550;-87
2021/05/01 15:15:51;;;;;;;11.53;9.90;;;16.90;26.10;;;;;;4955584;28;21237;-87
2021/05/01 15:18:17;;;;;;;12.37;11.47;;;16.90;26.00;;;;;;4957252;28;20433;-86
2021/05/01 15:20:54;;;;;;;11.70;10.80;;;16.90;26.10;;;;;;4973242;28;20584;-87
2021/05/01 15:23:27;;;;;;;10.43;9.63;;;16.60;26.20;;;;;;4972732;28;20222;-87